createdAt,value
2023-01-21T00:00:50.621Z,10.50
2023-01-21T00:03:17.043Z,10.52
2023-01-21T00:05:43.463Z,10.62
2023-01-21T00:08:09.865Z,10.35
2023-01-21T00:10:36.252Z,9.10
2023-01-21T00:13:02.595Z,8.96
2023-01-21T00:15:29.025Z,9.69
2023-01-21T00:17:55.431Z,9.52
2023-01-21T00:20:21.839Z,9.46
2023-01-21T00:22:48.227Z,8.60
2023-01-21T00:25:14.566Z,8.53
2023-01-21T00:27:40.914Z,8.13
2023-01-21T00:30:07.279Z,8.29
2023-01-21T00:32:33.605Z,8.53
2023-01-21T00:43:05.985Z,9.76
2023-01-21T00:50:56.056Z,9.57
2023-01-21T00:53:22.441Z,9.92
2023-01-21T00:55:48.853Z,10.07
2023-01-21T00:58:15.324Z,10.94
2023-01-21T01:00:41.719Z,11.13
2023-01-21T01:03:08.051Z,11.14
2023-01-21T01:05:34.440Z,11.98
2023-01-21T01:08:00.842Z,12.63
2023-01-21T01:10:27.205Z,12.78
2023-01-21T01:12:53.605Z,13.66
2023-01-21T01:15:20.026Z,13.78
2023-01-21T01:17:46.421Z,13.97
2023-01-21T01:20:12.817Z,14.69
2023-01-21T01:22:39.164Z,15.02
2023-01-21T01:25:05.512Z,14.58
2023-01-21T01:27:31.876Z,15.18
2023-01-21T01:29:58.217Z,15.11
2023-01-21T01:32:24.607Z,15.52
2023-01-21T01:34:50.965Z,15.12
2023-01-21T01:37:17.352Z,15.69
2023-01-21T01:39:43.709Z,15.47
2023-01-21T01:42:10.064Z,15.55
2023-01-21T01:44:36.442Z,15.87
2023-01-21T01:47:02.794Z,15.52
2023-01-21T01:49:29.183Z,15.50
2023-01-21T01:51:55.541Z,15.34
2023-01-21T02:15:51.208Z,16.71
2023-01-21T02:18:17.623Z,16.51
2023-01-21T02:20:44.017Z,16.91
2023-01-21T02:23:10.366Z,16.66
2023-01-21T02:31:00.374Z,15.50
2023-01-21T02:33:26.829Z,15.66
2023-01-21T02:35:53.246Z,16.32
2023-01-21T02:38:19.660Z,15.99
2023-01-21T02:40:46.014Z,16.46
2023-01-21T02:43:12.398Z,16.28
2023-01-21T02:45:38.770Z,16.13
2023-01-21T02:48:05.154Z,16.43
2023-01-21T02:50:31.501Z,16.04
2023-01-21T02:52:57.850Z,17.12
2023-01-21T03:06:12.336Z,18.55
2023-01-21T03:08:38.700Z,19.16
2023-01-21T03:11:05.054Z,20.20
2023-01-21T03:13:31.444Z,20.23
2023-01-21T03:15:57.828Z,20.88
2023-01-21T03:18:24.212Z,20.26
2023-01-21T03:20:50.632Z,20.51
2023-01-21T03:23:18.146Z,21.58
2023-01-21T03:25:44.497Z,21.00
2023-01-21T03:28:10.884Z,21.18
2023-01-21T03:30:37.273Z,21.08
2023-01-21T03:33:03.631Z,20.79
2023-01-21T03:35:30.035Z,20.93
2023-01-21T03:37:56.404Z,21.22
2023-01-21T03:40:22.787Z,21.21
2023-01-21T03:42:49.179Z,21.16
2023-01-21T03:45:15.891Z,21.38
2023-01-21T03:47:42.252Z,22.22
2023-01-21T03:50:08.590Z,21.80
2023-01-21T03:52:34.988Z,21.99
2023-01-21T03:55:01.348Z,21.83
2023-01-21T03:57:27.704Z,22.60
2023-01-21T03:59:54.107Z,22.86
2023-01-21T04:02:20.627Z,22.31
2023-01-21T04:04:47.054Z,22.60
2023-01-21T04:07:13.457Z,22.39
2023-01-21T04:09:39.848Z,22.20
2023-01-21T04:12:06.245Z,22.22
2023-01-21T04:14:32.598Z,22.34
2023-01-21T04:16:58.972Z,21.50
2023-01-21T04:19:25.336Z,22.34
2023-01-21T04:21:51.728Z,22.28
2023-01-21T04:24:18.175Z,22.88
2023-01-21T04:26:44.573Z,23.24
2023-01-21T04:29:10.930Z,22.58
2023-01-21T04:31:37.325Z,22.15
2023-01-21T04:34:03.745Z,20.04
2023-01-21T04:36:30.118Z,18.86
2023-01-21T04:38:56.505Z,17.77
2023-01-21T04:41:25.280Z,16.16
2023-01-21T04:43:51.851Z,15.20
2023-01-21T04:46:18.231Z,15.02
2023-01-21T04:48:44.627Z,14.89
2023-01-21T04:51:11.053Z,15.25
2023-01-21T04:53:37.402Z,15.37
2023-01-21T04:56:03.808Z,15.22
2023-01-21T04:58:30.209Z,15.26
2023-01-21T05:00:56.677Z,15.13
2023-01-21T05:03:23.143Z,15.32
2023-01-21T05:05:49.546Z,15.18
2023-01-21T05:08:15.930Z,15.04
2023-01-21T05:10:42.333Z,15.17
2023-01-21T05:13:08.694Z,14.86
2023-01-21T05:15:35.160Z,14.18
2023-01-21T05:18:01.575Z,14.41
2023-01-21T05:20:27.979Z,14.98
2023-01-21T05:22:54.371Z,14.56
2023-01-21T05:25:20.723Z,15.03
2023-01-21T05:27:47.108Z,15.23
2023-01-21T05:30:13.505Z,15.82
2023-01-21T05:32:39.912Z,15.05
2023-01-21T05:35:06.281Z,15.45
2023-01-21T05:37:32.625Z,15.56
2023-01-21T05:39:59.008Z,15.12
2023-01-21T05:42:25.414Z,14.88
2023-01-21T05:44:51.891Z,14.94
2023-01-21T05:47:18.259Z,14.35
2023-01-21T05:49:44.603Z,14.96
2023-01-21T05:52:10.987Z,14.38
2023-01-21T05:54:37.587Z,14.42
2023-01-21T05:57:04.067Z,14.28
2023-01-21T05:59:30.413Z,14.10
2023-01-21T06:01:56.811Z,14.51
2023-01-21T06:04:23.977Z,15.21
2023-01-21T06:06:50.445Z,15.39
2023-01-21T06:09:16.845Z,15.70
2023-01-21T06:11:43.253Z,15.83
2023-01-21T06:14:09.612Z,16.55
2023-01-21T06:16:35.953Z,16.90
2023-01-21T06:19:02.311Z,17.37
2023-01-21T06:21:28.697Z,18.32
2023-01-21T06:23:55.099Z,17.94
2023-01-21T06:26:21.450Z,18.62
2023-01-21T06:28:47.793Z,18.53
2023-01-21T06:31:14.246Z,19.13
2023-01-21T06:33:40.653Z,19.52
2023-01-21T06:36:07.032Z,20.56
2023-01-21T06:38:33.400Z,22.18
2023-01-21T06:40:59.783Z,21.69
2023-01-21T06:43:26.145Z,21.82
2023-01-21T06:45:52.523Z,22.29
2023-01-21T06:48:18.948Z,23.32
2023-01-21T06:50:45.325Z,22.17
2023-01-21T06:53:11.796Z,21.12
2023-01-21T06:55:38.195Z,20.11
2023-01-21T06:58:04.562Z,19.26
2023-01-21T07:00:30.977Z,18.84
2023-01-21T07:02:57.435Z,17.80
2023-01-21T07:05:23.806Z,17.71
2023-01-21T07:07:50.163Z,17.47
2023-01-21T07:10:16.849Z,17.51
2023-01-21T07:12:43.329Z,17.01
2023-01-21T07:15:09.675Z,17.28
2023-01-21T07:17:36.069Z,16.73
2023-01-21T07:20:02.520Z,17.15
2023-01-21T07:22:28.935Z,16.89
2023-01-21T07:24:55.323Z,15.92
2023-01-21T07:27:21.725Z,15.18
2023-01-21T07:29:48.120Z,14.90
2023-01-21T07:32:14.522Z,14.92
2023-01-21T07:34:40.882Z,14.31
2023-01-21T07:37:07.286Z,14.20
2023-01-21T07:39:33.709Z,14.20
2023-01-21T07:42:00.110Z,13.92
2023-01-21T07:44:26.521Z,15.21
2023-01-21T07:46:52.976Z,14.65
2023-01-21T07:49:19.410Z,14.39
2023-01-21T07:51:45.763Z,14.65
2023-01-21T07:54:12.153Z,14.22
2023-01-21T07:56:38.558Z,13.46
2023-01-21T07:59:04.920Z,12.96
2023-01-21T08:01:31.337Z,11.95
2023-01-21T08:03:57.790Z,10.40
2023-01-21T08:06:24.184Z,9.63
2023-01-21T08:08:50.589Z,10.15
2023-01-21T08:11:16.976Z,10.98
2023-01-21T08:13:43.362Z,11.66
2023-01-21T08:16:09.817Z,11.24
2023-01-21T08:18:36.200Z,10.43
2023-01-21T08:21:02.609Z,9.69
2023-01-21T08:23:28.953Z,9.05
2023-01-21T08:25:55.326Z,8.10
2023-01-21T08:28:21.690Z,7.68
2023-01-21T08:30:48.047Z,6.84
2023-01-21T08:33:14.441Z,7.26
2023-01-21T08:35:40.831Z,7.66
2023-01-21T08:38:07.181Z,8.56
2023-01-21T08:40:33.530Z,8.19
2023-01-21T08:42:59.877Z,8.14
2023-01-21T08:45:26.233Z,8.50
2023-01-21T08:47:52.631Z,8.95
2023-01-21T08:50:19.008Z,9.05
2023-01-21T08:52:45.367Z,8.58
2023-01-21T08:55:11.731Z,8.37
2023-01-21T08:57:38.151Z,8.21
2023-01-21T09:00:04.508Z,7.75
2023-01-21T09:02:30.926Z,8.21
2023-01-21T09:04:57.357Z,8.14
2023-01-21T09:07:23.745Z,8.65
2023-01-21T09:09:50.099Z,8.31
2023-01-21T09:12:16.472Z,8.01
2023-01-21T09:14:42.869Z,8.38
2023-01-21T09:17:09.218Z,8.70
2023-01-21T09:19:35.585Z,8.89
2023-01-21T09:22:01.936Z,8.81
2023-01-21T09:24:28.271Z,9.13
2023-01-21T09:26:54.664Z,10.21
2023-01-21T09:29:21.067Z,10.49
2023-01-21T09:31:47.446Z,10.71
2023-01-21T09:34:13.880Z,11.57
2023-01-21T09:36:40.253Z,11.81
2023-01-21T09:39:06.637Z,12.50
2023-01-21T09:41:33.029Z,12.38
2023-01-21T09:43:59.392Z,12.85
2023-01-21T09:46:25.754Z,13.01
2023-01-21T09:48:52.089Z,13.33
2023-01-21T09:51:18.527Z,13.10
2023-01-21T09:53:44.889Z,13.64
2023-01-21T09:56:11.234Z,14.10
2023-01-21T09:58:37.610Z,14.81
2023-01-21T10:01:03.996Z,14.63
2023-01-21T10:03:30.350Z,14.85
2023-01-21T10:05:56.694Z,15.45
2023-01-21T10:08:23.071Z,14.90
2023-01-21T10:10:49.421Z,14.75
2023-01-21T10:13:15.816Z,14.90
2023-01-21T10:15:42.201Z,14.79
2023-01-21T10:18:08.554Z,14.21
2023-01-21T10:20:34.949Z,14.28
2023-01-21T10:23:01.372Z,13.54
2023-01-21T10:25:27.780Z,12.12
2023-01-21T10:27:54.149Z,12.03
2023-01-21T10:30:20.528Z,12.52
2023-01-21T10:32:46.901Z,12.84
2023-01-21T10:35:13.244Z,12.87
2023-01-21T10:37:39.711Z,12.60
2023-01-21T10:40:06.109Z,11.53
2023-01-21T10:42:32.484Z,11.67
2023-01-21T10:44:58.823Z,12.19
2023-01-21T10:47:25.205Z,12.11
2023-01-21T10:49:51.552Z,12.69
2023-01-21T10:52:17.937Z,12.88
2023-01-21T10:54:44.301Z,12.50
2023-01-21T10:57:10.643Z,12.97
2023-01-21T10:59:37.036Z,13.45
2023-01-21T11:02:03.394Z,13.59
2023-01-21T11:04:29.790Z,13.39
2023-01-21T11:06:56.176Z,13.58
2023-01-21T11:09:22.572Z,13.50
2023-01-21T11:11:48.967Z,14.09
2023-01-21T11:14:15.327Z,14.22
2023-01-21T11:16:41.859Z,14.59
2023-01-21T11:19:08.217Z,14.21
2023-01-21T11:21:34.624Z,14.80
2023-01-21T11:24:00.986Z,14.05
2023-01-21T11:26:27.352Z,14.47
2023-01-21T11:28:53.698Z,14.49
2023-01-21T11:31:20.133Z,14.29
2023-01-21T11:33:46.500Z,14.69
2023-01-21T11:36:12.872Z,14.67
2023-01-21T11:38:39.282Z,14.70
2023-01-21T11:41:05.654Z,14.98
2023-01-21T11:43:32.040Z,14.68
2023-01-21T11:45:58.402Z,13.68
2023-01-21T11:48:24.793Z,14.23
2023-01-21T11:50:51.175Z,14.58
2023-01-21T11:53:17.603Z,14.42
2023-01-21T11:55:44.031Z,14.06
2023-01-21T11:58:10.493Z,13.73
2023-01-21T12:00:36.846Z,13.14
2023-01-21T12:03:03.234Z,13.42
2023-01-21T12:05:29.663Z,14.07
2023-01-21T12:07:56.003Z,14.11
2023-01-21T12:10:22.391Z,14.14
2023-01-21T12:12:48.739Z,13.28
2023-01-21T12:15:15.095Z,13.43
2023-01-21T12:17:41.470Z,13.45
2023-01-21T12:20:07.873Z,13.55
2023-01-21T12:22:34.231Z,13.43
2023-01-21T12:25:00.577Z,12.76
2023-01-21T12:27:26.954Z,12.12
2023-01-21T12:29:53.339Z,11.76
2023-01-21T12:32:20.635Z,11.56
2023-01-21T12:34:48.509Z,11.56
2023-01-21T12:37:14.893Z,11.31
2023-01-21T12:39:41.249Z,11.09
2023-01-21T12:42:07.636Z,10.63
2023-01-21T12:44:33.987Z,10.27
2023-01-21T12:47:00.386Z,9.78
2023-01-21T12:49:26.872Z,9.95
2023-01-21T12:51:53.270Z,10.60
2023-01-21T12:54:19.620Z,11.12
2023-01-21T12:56:45.959Z,10.73
2023-01-21T12:59:12.321Z,9.99
2023-01-21T13:01:38.766Z,10.17
2023-01-21T13:04:05.153Z,10.39
2023-01-21T13:06:47.206Z,9.82
2023-01-21T13:09:17.842Z,11.30
2023-01-21T13:11:44.295Z,10.11
2023-01-21T13:14:10.698Z,10.60
2023-01-21T13:16:37.150Z,9.82
2023-01-21T13:19:03.553Z,9.71
2023-01-21T13:21:29.920Z,9.21
2023-01-21T13:23:56.304Z,8.85
2023-01-21T13:26:22.704Z,7.70
2023-01-21T13:28:49.066Z,7.78
2023-01-21T13:31:15.496Z,7.59
2023-01-21T13:33:41.902Z,7.68
2023-01-21T13:36:08.233Z,7.83
2023-01-21T13:38:34.585Z,7.33
2023-01-21T13:41:00.965Z,7.24
2023-01-21T13:43:27.320Z,7.64
2023-01-21T13:45:53.754Z,6.58
2023-01-21T13:48:20.195Z,6.26
2023-01-21T13:50:46.586Z,6.59
2023-01-21T13:53:12.988Z,6.22
2023-01-21T13:55:39.375Z,6.35
2023-01-21T13:58:05.768Z,7.14
2023-01-21T14:00:32.118Z,8.09
2023-01-21T14:02:58.504Z,6.83
2023-01-21T14:05:24.890Z,6.97
2023-01-21T14:07:51.279Z,7.13
2023-01-21T14:10:17.816Z,6.87
2023-01-21T14:12:44.354Z,6.90
2023-01-21T14:15:10.733Z,7.09
2023-01-21T14:17:37.080Z,7.75
2023-01-21T14:20:03.419Z,7.29
2023-01-21T14:22:29.798Z,7.21
2023-01-21T14:24:56.148Z,7.66
2023-01-21T14:27:22.496Z,7.98
2023-01-21T14:29:48.826Z,8.10
2023-01-21T14:32:15.195Z,8.24
2023-01-21T14:34:41.538Z,8.54
2023-01-21T14:37:07.869Z,8.83
2023-01-21T14:39:34.214Z,9.68
2023-01-21T14:42:00.609Z,8.85
2023-01-21T14:44:26.970Z,9.24
2023-01-21T14:46:53.340Z,8.90
2023-01-21T14:49:19.692Z,8.90
2023-01-21T14:51:46.018Z,9.21
2023-01-21T14:54:12.403Z,9.38
2023-01-21T14:56:38.751Z,9.44
2023-01-21T14:59:05.137Z,9.44
2023-01-21T15:01:31.621Z,9.02
2023-01-21T15:03:58.021Z,9.24
2023-01-21T15:06:24.366Z,9.18
2023-01-21T15:08:50.753Z,8.97
2023-01-21T15:11:17.101Z,9.30
2023-01-21T15:13:43.487Z,9.83
2023-01-21T15:16:09.848Z,9.87
2023-01-21T15:18:36.252Z,10.12
2023-01-21T15:21:02.603Z,10.36
2023-01-21T15:23:29.012Z,10.03
2023-01-21T15:25:55.413Z,10.23
2023-01-21T15:28:21.795Z,10.31
2023-01-21T15:30:58.360Z,9.91
2023-01-21T15:33:25.255Z,10.31
2023-01-21T15:35:51.631Z,10.28
2023-01-21T15:38:18.035Z,10.41
2023-01-21T15:40:44.427Z,10.76
2023-01-21T15:43:10.786Z,10.17
2023-01-21T15:45:37.186Z,12.05
2023-01-21T15:48:03.576Z,11.46
2023-01-21T15:50:29.946Z,11.86
2023-01-21T15:52:56.329Z,12.31
2023-01-21T15:55:22.727Z,11.01
2023-01-21T15:57:49.073Z,10.62
2023-01-21T16:00:15.428Z,10.31
2023-01-21T16:02:41.873Z,9.45
2023-01-21T16:05:08.287Z,9.33
2023-01-21T16:07:34.680Z,9.18
2023-01-21T16:10:01.026Z,9.60
2023-01-21T16:12:27.413Z,10.15
2023-01-21T16:14:53.779Z,10.75
2023-01-21T16:17:20.115Z,9.88
2023-01-21T16:19:46.502Z,9.93
2023-01-21T16:22:12.866Z,10.87
2023-01-21T16:24:39.265Z,10.30
2023-01-21T16:27:05.620Z,10.21
2023-01-21T16:29:31.997Z,10.84
2023-01-21T16:31:58.350Z,12.43
2023-01-21T16:34:24.753Z,11.30
2023-01-21T16:36:51.114Z,10.64
2023-01-21T16:39:17.497Z,10.91
2023-01-21T16:41:43.866Z,11.45
2023-01-21T16:44:10.209Z,11.29
2023-01-21T16:46:36.638Z,11.92
2023-01-21T16:49:03.104Z,13.41
2023-01-21T16:51:29.490Z,13.43
2023-01-21T16:53:55.927Z,13.89
2023-01-21T16:56:22.317Z,14.21
2023-01-21T16:58:48.718Z,13.91
2023-01-21T17:01:15.091Z,14.56
2023-01-21T17:03:41.490Z,14.54
2023-01-21T17:06:07.848Z,18.03
2023-01-21T17:08:34.197Z,19.63
2023-01-21T17:11:00.557Z,19.15
2023-01-21T17:13:26.940Z,17.37
2023-01-21T17:15:53.355Z,19.13
2023-01-21T17:18:19.786Z,19.61
2023-01-21T17:20:46.154Z,21.98
2023-01-21T17:23:12.743Z,21.95
2023-01-21T17:25:39.137Z,24.32
2023-01-21T17:28:05.510Z,26.76
2023-01-21T17:30:31.999Z,27.55
2023-01-21T17:32:58.434Z,24.66
2023-01-21T17:35:25.029Z,23.64
2023-01-21T17:37:51.478Z,21.54
2023-01-21T17:40:17.831Z,20.23
2023-01-21T17:42:44.217Z,22.49
2023-01-21T17:45:10.568Z,22.29
2023-01-21T17:47:50.947Z,21.06
2023-01-21T17:50:23.267Z,17.38
2023-01-21T17:52:49.682Z,17.43
2023-01-21T17:55:16.234Z,18.89
2023-01-21T17:57:42.725Z,19.91
2023-01-21T18:00:09.073Z,18.90
2023-01-21T18:02:35.489Z,17.98
2023-01-21T18:05:01.896Z,21.16
2023-01-21T18:07:28.236Z,25.34
2023-01-21T18:09:54.673Z,22.57
2023-01-21T18:12:21.046Z,22.56
2023-01-21T18:14:47.443Z,21.93
2023-01-21T18:17:13.806Z,22.91
2023-01-21T18:19:40.197Z,20.55
2023-01-21T18:22:06.602Z,18.78
2023-01-21T18:24:33.027Z,17.62
2023-01-21T18:26:59.430Z,15.90
2023-01-21T18:29:25.783Z,17.43
2023-01-21T18:31:52.286Z,16.38
2023-01-21T18:34:18.709Z,15.60
2023-01-21T18:36:45.055Z,18.60
2023-01-21T18:39:11.437Z,20.95
2023-01-21T18:41:37.837Z,18.31
2023-01-21T18:44:04.236Z,18.14
2023-01-21T18:46:30.642Z,20.60
2023-01-21T18:48:57.055Z,19.30
2023-01-21T18:51:23.548Z,20.35
2023-01-21T18:53:49.949Z,18.37
2023-01-21T18:56:16.303Z,17.81
2023-01-21T18:58:42.674Z,18.28
2023-01-21T19:01:21.870Z,17.67
2023-01-21T19:03:49.243Z,16.48
2023-01-21T19:06:15.631Z,16.02
2023-01-21T19:08:41.990Z,16.78
2023-01-21T19:11:08.341Z,16.39
2023-01-21T19:13:34.731Z,15.12
2023-01-21T19:16:01.170Z,15.69
2023-01-21T19:18:27.587Z,17.73
2023-01-21T19:20:54.094Z,17.68
2023-01-21T19:23:20.459Z,16.13
2023-01-21T19:25:46.827Z,17.28
2023-01-21T19:28:13.176Z,18.80
2023-01-21T19:30:39.565Z,21.14
2023-01-21T19:33:05.970Z,21.72
2023-01-21T19:35:32.344Z,20.79
2023-01-21T19:37:58.744Z,19.78
2023-01-21T19:40:25.158Z,20.51
2023-01-21T19:42:51.560Z,23.74
2023-01-21T19:45:17.921Z,22.69
2023-01-21T19:47:44.288Z,20.43
2023-01-21T19:50:10.640Z,23.14
2023-01-21T19:52:36.995Z,22.05
2023-01-21T19:55:03.393Z,22.50
2023-01-21T19:57:29.769Z,23.73
2023-01-21T19:59:56.140Z,22.55
2023-01-21T20:02:22.618Z,24.49
2023-01-21T20:04:49.068Z,23.90
2023-01-21T20:07:15.513Z,22.20
2023-01-21T20:09:41.932Z,21.29
2023-01-21T20:12:08.286Z,22.93
2023-01-21T20:14:34.662Z,26.00
2023-01-21T20:17:01.017Z,21.79
2023-01-21T20:19:27.463Z,18.00
2023-01-21T20:22:01.698Z,18.67
2023-01-21T20:24:28.947Z,17.41
2023-01-21T20:26:55.301Z,16.24
2023-01-21T20:29:21.684Z,18.02
2023-01-21T20:31:48.123Z,17.91
2023-01-21T20:34:14.505Z,17.55
2023-01-21T20:36:40.888Z,16.48
2023-01-21T20:39:07.236Z,17.38
2023-01-21T20:41:33.623Z,19.66
2023-01-21T20:43:59.988Z,18.58
2023-01-21T20:46:26.390Z,16.59
2023-01-21T20:48:52.780Z,16.77
2023-01-21T20:51:19.366Z,15.36
2023-01-21T20:53:45.808Z,15.26
2023-01-21T20:56:12.167Z,16.11
2023-01-21T20:58:38.590Z,14.54
2023-01-21T21:01:05.112Z,14.83
2023-01-21T21:03:31.544Z,15.63
2023-01-21T21:05:57.941Z,15.15
2023-01-21T21:08:24.308Z,15.06
2023-01-21T21:10:50.728Z,14.67
2023-01-21T21:13:17.210Z,15.35
2023-01-21T21:15:45.775Z,14.29
2023-01-21T21:18:12.926Z,15.64
2023-01-21T21:20:39.276Z,14.54
2023-01-21T21:23:05.667Z,13.29
2023-01-21T21:25:32.023Z,13.53
2023-01-21T21:27:58.366Z,13.17
2023-01-21T21:30:24.715Z,13.53
2023-01-21T21:32:51.066Z,13.23
2023-01-21T21:35:17.914Z,12.99
2023-01-21T21:37:44.512Z,13.83
2023-01-21T21:40:10.885Z,13.61
2023-01-21T21:42:37.240Z,13.77
2023-01-21T21:45:03.601Z,13.32
2023-01-21T21:47:29.953Z,14.12
2023-01-21T21:49:56.349Z,13.81
2023-01-21T21:52:22.748Z,14.44
2023-01-21T21:54:49.137Z,26.79
2023-01-21T21:57:15.560Z,14.87
2023-01-21T21:59:41.931Z,12.95
2023-01-21T22:02:08.369Z,13.50
2023-01-21T22:04:34.752Z,13.47
2023-01-21T22:07:01.104Z,13.44
2023-01-21T22:09:27.500Z,13.63
2023-01-21T22:11:53.933Z,13.14
2023-01-21T22:14:20.325Z,12.87
2023-01-21T22:16:46.713Z,14.40
2023-01-21T22:19:13.213Z,12.83
2023-01-21T22:21:39.617Z,13.48
2023-01-21T22:24:06.026Z,13.29
2023-01-21T22:26:32.418Z,12.99
2023-01-21T22:28:58.772Z,15.04
2023-01-21T22:31:25.222Z,13.36
2023-01-21T22:33:51.674Z,13.03
2023-01-21T22:36:18.078Z,13.64
2023-01-21T22:38:44.478Z,12.73
2023-01-21T22:41:11.089Z,12.59
2023-01-21T22:43:37.465Z,12.48
2023-01-21T22:46:03.892Z,12.32
2023-01-21T22:48:30.271Z,12.33
2023-01-21T22:50:56.718Z,12.55
2023-01-21T22:53:23.126Z,12.72
2023-01-21T22:55:49.511Z,12.18
2023-01-21T22:58:15.873Z,12.45
2023-01-21T23:00:42.259Z,12.15
2023-01-21T23:03:08.648Z,11.76
2023-01-21T23:05:35.119Z,13.94
2023-01-21T23:08:01.538Z,12.11
2023-01-21T23:10:27.921Z,12.09
2023-01-21T23:12:54.336Z,11.64
2023-01-21T23:15:20.689Z,11.52
2023-01-21T23:17:47.032Z,11.65
2023-01-21T23:20:13.371Z,12.16
2023-01-21T23:22:39.709Z,12.21
2023-01-21T23:25:06.145Z,12.47
2023-01-21T23:27:32.542Z,13.09
2023-01-21T23:29:58.932Z,11.90
2023-01-21T23:32:25.323Z,11.90
2023-01-21T23:34:51.708Z,11.84
2023-01-21T23:37:18.055Z,11.27
2023-01-21T23:39:44.428Z,11.19
2023-01-21T23:42:10.778Z,11.64
2023-01-21T23:44:37.156Z,11.11
2023-01-21T23:47:03.555Z,11.16
2023-01-21T23:49:29.943Z,11.54
2023-01-21T23:51:56.296Z,11.38
2023-01-21T23:54:22.681Z,10.90
2023-01-21T23:56:49.032Z,11.40
2023-01-21T23:59:15.367Z,11.10
